Airfield :
LOGIN :

Register | Disclaimer

   EN    FR    IT 

 










Legend :    VFR   Marginal VFR   IFR   Intensive IFR   Very Intensive IFR
Visi :
Ceiling :
>= 8 km
>= 3000ft
5 to 8 km
1000 to 3000 ft
1500m to 5 km
500 to 1000 ft
800 to 1500m
200 to 500 ft
< 800m
< 200 ft
Symbols :   Thunderstorms  Fog  Heavy snow  Heavy precipitations  Wind > 20 kt
SIGMETs :     Misc.  Thunderstorms  Icing  Turbulence  Mountain Waves  Volcanic Ashes






- Airport Elevation : 15 ft
- IATA code : FCO


LIRF - Roma Leonardo da Vinci Fiumicino

CURRENT METAR :
  • 031220Z 22014KT 9999 SCT020 29/22 Q1007 NOSIG

EXPIRED METARs :
  • 031150Z 21011KT 9999 BKN020 30/23 Q1007 NOSIG
  • 031120Z 21012KT 9999 SCT022 30/23 Q1007 NOSIG
  • 031050Z 20010KT 9999 SCT022 30/22 Q1007 NOSIG
  • 031020Z 20011KT 9999 SCT022 31/23 Q1007 NOSIG
  • 030950Z 20009KT 160V230 9999 SCT020 31/23 Q1008 NOSIG

TAF TAF LIRF
Valid from the 03 at 12:00 until the 04 at 18:00 UTC


031100Z 0312/0418 23012KT 9999 SCT020 SCT040
TEMPO 0404/0414 26015G28KT



MET'MAP, your aeronautical weather chart ! - Copyright ORBIFLY December 2007 - Disclaimer

ORBIFLY MET'MAP TEAM :

Programming & Development : Alexandra Zaïnal
Concept & original design : Baudouin d'Aumeries
Assistance for programming : Marc-Olivier Méhu
Technical & hardware support : Manuel Goepfert

Contact : metmap@orbifly.com




SOURCES & CREDITS :

   NOAA